KALN/ALN METAR and TAF weather

Enter ICAO airport designator
Station Type Date Time Source
KALN METAR 2021/07/27 20:47 UTC NOAA

KALN 272047Z VRB04KT 10SM CLR 32/18 A3004


Station Type Date Time Source
KALN Decoded METAR 2021/07/27 20:47 UTC NOAA

Alton/St. Louis, St. Louis Regional Airport, IL, United States (KALN) 38-54N 090-03W
Jul 27, 2021 - 04:47 PM EDT / 2021.07.27 2047 UTC
Wind: Variable at 5 MPH (4 KT):0
Visibility: 10 mile(s):0
Sky conditions: clear
Temperature: 89 F (32 C)
Dew Point: 64 F (18 C)
Relative Humidity: 43%
Pressure (altimeter): 30.04 in. Hg (1017 hPa)
ob: KALN 272047Z VRB04KT 10SM CLR 32/18 A3004
cycle: 21

Station Type Date Time Source
KALN TAF UTC NOAA

Error!

Example: see airport list